sensor_id;sensor_type;location;lat;lon;timestamp;temperature;humidity
77613;DHT22;66777;52.282;5.960;2023-06-04T00:02:23;13.20;57.40
77613;DHT22;66777;52.282;5.960;2023-06-04T00:04:48;13.20;57.50
77613;DHT22;66777;52.282;5.960;2023-06-04T00:07:14;13.10;57.50
77613;DHT22;66777;52.282;5.960;2023-06-04T00:09:39;13.10;57.50
77613;DHT22;66777;52.282;5.960;2023-06-04T00:12:05;13.10;57.60
77613;DHT22;66777;52.282;5.960;2023-06-04T00:14:31;13.10;57.60
77613;DHT22;66777;52.282;5.960;2023-06-04T00:16:56;13.00;57.60
77613;DHT22;66777;52.282;5.960;2023-06-04T00:19:22;13.00;57.80
77613;DHT22;66777;52.282;5.960;2023-06-04T00:21:47;12.90;58.00
77613;DHT22;66777;52.282;5.960;2023-06-04T00:24:13;12.90;58.00
77613;DHT22;66777;52.282;5.960;2023-06-04T00:26:39;12.80;58.20
77613;DHT22;66777;52.282;5.960;2023-06-04T00:29:05;12.80;58.10
77613;DHT22;66777;52.282;5.960;2023-06-04T00:31:30;12.80;58.10
77613;DHT22;66777;52.282;5.960;2023-06-04T00:33:56;12.80;58.10
77613;DHT22;66777;52.282;5.960;2023-06-04T00:36:22;12.70;58.20
77613;DHT22;66777;52.282;5.960;2023-06-04T00:38:47;12.70;58.30
77613;DHT22;66777;52.282;5.960;2023-06-04T00:41:13;12.70;58.40
77613;DHT22;66777;52.282;5.960;2023-06-04T00:43:38;12.60;58.30
77613;DHT22;66777;52.282;5.960;2023-06-04T00:46:06;12.60;58.40
77613;DHT22;66777;52.282;5.960;2023-06-04T00:48:32;12.50;58.50
77613;DHT22;66777;52.282;5.960;2023-06-04T00:50:58;12.50;58.60
77613;DHT22;66777;52.282;5.960;2023-06-04T00:53:24;12.50;58.70
77613;DHT22;66777;52.282;5.960;2023-06-04T00:55:51;12.50;58.70
77613;DHT22;66777;52.282;5.960;2023-06-04T00:58:17;12.50;58.80
77613;DHT22;66777;52.282;5.960;2023-06-04T01:00:43;12.50;58.90
77613;DHT22;66777;52.282;5.960;2023-06-04T01:03:14;12.40;58.80
77613;DHT22;66777;52.282;5.960;2023-06-04T01:05:47;12.30;59.00
77613;DHT22;66777;52.282;5.960;2023-06-04T01:08:13;12.30;59.00
77613;DHT22;66777;52.282;5.960;2023-06-04T01:10:54;12.30;59.00
77613;DHT22;66777;52.282;5.960;2023-06-04T01:13:20;12.20;59.20
77613;DHT22;66777;52.282;5.960;2023-06-04T01:15:46;12.20;59.20
77613;DHT22;66777;52.282;5.960;2023-06-04T01:18:15;12.20;59.20
77613;DHT22;66777;52.282;5.960;2023-06-04T01:21:07;12.10;59.40
77613;DHT22;66777;52.282;5.960;2023-06-04T01:23:50;12.10;59.40
77613;DHT22;66777;52.282;5.960;2023-06-04T01:26:27;12.10;59.50
77613;DHT22;66777;52.282;5.960;2023-06-04T01:28:53;12.00;59.50
77613;DHT22;66777;52.282;5.960;2023-06-04T01:31:20;12.00;59.60
77613;DHT22;66777;52.282;5.960;2023-06-04T01:33:52;12.00;59.60
77613;DHT22;66777;52.282;5.960;2023-06-04T01:36:18;11.90;59.70
77613;DHT22;66777;52.282;5.960;2023-06-04T01:38:43;11.90;59.80
77613;DHT22;66777;52.282;5.960;2023-06-04T01:41:10;11.90;59.90
77613;DHT22;66777;52.282;5.960;2023-06-04T01:43:36;11.90;59.80
77613;DHT22;66777;52.282;5.960;2023-06-04T01:46:02;11.90;59.90
77613;DHT22;66777;52.282;5.960;2023-06-04T01:48:28;11.80;60.00
77613;DHT22;66777;52.282;5.960;2023-06-04T01:50:54;11.80;60.00
77613;DHT22;66777;52.282;5.960;2023-06-04T01:53:20;11.80;60.10
77613;DHT22;66777;52.282;5.960;2023-06-04T01:55:46;11.70;60.20
77613;DHT22;66777;52.282;5.960;2023-06-04T01:58:15;11.70;60.30
77613;DHT22;66777;52.282;5.960;2023-06-04T02:00:43;11.70;60.40
77613;DHT22;66777;52.282;5.960;2023-06-04T02:03:09;11.60;60.60
77613;DHT22;66777;52.282;5.960;2023-06-04T02:05:36;11.60;60.50
77613;DHT22;66777;52.282;5.960;2023-06-04T02:08:02;11.50;60.70
77613;DHT22;66777;52.282;5.960;2023-06-04T02:10:30;11.50;60.90
77613;DHT22;66777;52.282;5.960;2023-06-04T02:13:00;11.50;61.00
77613;DHT22;66777;52.282;5.960;2023-06-04T02:15:27;11.50;61.30
77613;DHT22;66777;52.282;5.960;2023-06-04T02:17:56;11.50;60.90
77613;DHT22;66777;52.282;5.960;2023-06-04T02:20:27;11.50;61.00
77613;DHT22;66777;52.282;5.960;2023-06-04T02:22:54;11.50;61.00
77613;DHT22;66777;52.282;5.960;2023-06-04T02:25:20;11.40;61.00
77613;DHT22;66777;52.282;5.960;2023-06-04T02:27:45;11.40;61.10
77613;DHT22;66777;52.282;5.960;2023-06-04T02:30:11;11.30;61.40
77613;DHT22;66777;52.282;5.960;2023-06-04T02:32:37;11.30;61.60
77613;DHT22;66777;52.282;5.960;2023-06-04T02:35:03;11.30;61.60
77613;DHT22;66777;52.282;5.960;2023-06-04T02:37:29;11.30;61.60
77613;DHT22;66777;52.282;5.960;2023-06-04T02:39:55;11.20;61.80
77613;DHT22;66777;52.282;5.960;2023-06-04T02:42:21;11.10;62.20
77613;DHT22;66777;52.282;5.960;2023-06-04T02:44:46;11.10;62.20
77613;DHT22;66777;52.282;5.960;2023-06-04T02:47:12;11.00;62.50
77613;DHT22;66777;52.282;5.960;2023-06-04T02:49:37;10.90;62.60
77613;DHT22;66777;52.282;5.960;2023-06-04T02:52:03;10.80;62.80
77613;DHT22;66777;52.282;5.960;2023-06-04T02:54:29;10.80;63.00
77613;DHT22;66777;52.282;5.960;2023-06-04T02:56:54;10.80;63.10
77613;DHT22;66777;52.282;5.960;2023-06-04T02:59:20;10.70;63.20
77613;DHT22;66777;52.282;5.960;2023-06-04T03:01:45;10.70;63.30
77613;DHT22;66777;52.282;5.960;2023-06-04T03:04:11;10.70;63.40
77613;DHT22;66777;52.282;5.960;2023-06-04T03:06:41;10.70;63.40
77613;DHT22;66777;52.282;5.960;2023-06-04T03:09:10;10.70;63.40
77613;DHT22;66777;52.282;5.960;2023-06-04T03:11:36;10.60;63.70
77613;DHT22;66777;52.282;5.960;2023-06-04T03:14:02;10.50;63.80
77613;DHT22;66777;52.282;5.960;2023-06-04T03:16:27;10.40;64.10
77613;DHT22;66777;52.282;5.960;2023-06-04T03:18:53;10.40;64.30
77613;DHT22;66777;52.282;5.960;2023-06-04T03:21:18;10.40;64.40
77613;DHT22;66777;52.282;5.960;2023-06-04T03:23:44;10.30;64.60
77613;DHT22;66777;52.282;5.960;2023-06-04T03:26:10;10.20;64.70
77613;DHT22;66777;52.282;5.960;2023-06-04T03:28:38;10.10;64.90
77613;DHT22;66777;52.282;5.960;2023-06-04T03:31:04;10.10;65.00
77613;DHT22;66777;52.282;5.960;2023-06-04T03:33:29;10.10;65.10
77613;DHT22;66777;52.282;5.960;2023-06-04T03:35:55;10.20;65.30
77613;DHT22;66777;52.282;5.960;2023-06-04T03:38:27;10.20;65.20
77613;DHT22;66777;52.282;5.960;2023-06-04T03:40:53;10.20;65.00
77613;DHT22;66777;52.282;5.960;2023-06-04T03:43:22;10.10;65.20
77613;DHT22;66777;52.282;5.960;2023-06-04T03:45:47;10.10;65.30
77613;DHT22;66777;52.282;5.960;2023-06-04T03:48:13;10.00;65.50
77613;DHT22;66777;52.282;5.960;2023-06-04T03:50:38;10.00;65.70
77613;DHT22;66777;52.282;5.960;2023-06-04T03:53:04;10.00;65.50
77613;DHT22;66777;52.282;5.960;2023-06-04T03:55:32;10.00;65.70
77613;DHT22;66777;52.282;5.960;2023-06-04T03:57:58;10.00;65.80
77613;DHT22;66777;52.282;5.960;2023-06-04T04:00:24;9.90;65.90
77613;DHT22;66777;52.282;5.960;2023-06-04T04:02:50;9.90;65.90
77613;DHT22;66777;52.282;5.960;2023-06-04T04:05:16;9.90;65.90
77613;DHT22;66777;52.282;5.960;2023-06-04T04:07:41;9.90;66.10
77613;DHT22;66777;52.282;5.960;2023-06-04T04:10:07;9.90;65.90
77613;DHT22;66777;52.282;5.960;2023-06-04T04:12:33;9.90;66.00
77613;DHT22;66777;52.282;5.960;2023-06-04T04:14:59;9.80;66.50
77613;DHT22;66777;52.282;5.960;2023-06-04T04:17:25;9.90;66.40
77613;DHT22;66777;52.282;5.960;2023-06-04T04:19:51;9.90;66.30
77613;DHT22;66777;52.282;5.960;2023-06-04T04:22:16;9.90;66.40
77613;DHT22;66777;52.282;5.960;2023-06-04T04:24:45;10.00;66.40
77613;DHT22;66777;52.282;5.960;2023-06-04T04:27:11;10.00;66.30
77613;DHT22;66777;52.282;5.960;2023-06-04T04:29:37;10.00;66.70
77613;DHT22;66777;52.282;5.960;2023-06-04T04:32:03;10.10;66.80
77613;DHT22;66777;52.282;5.960;2023-06-04T04:34:36;10.10;67.30
77613;DHT22;66777;52.282;5.960;2023-06-04T04:37:03;10.30;67.20
77613;DHT22;66777;52.282;5.960;2023-06-04T04:39:28;10.40;67.10
77613;DHT22;66777;52.282;5.960;2023-06-04T04:41:54;10.50;67.30
77613;DHT22;66777;52.282;5.960;2023-06-04T04:44:20;10.60;67.70
77613;DHT22;66777;52.282;5.960;2023-06-04T04:46:48;10.70;68.00
77613;DHT22;66777;52.282;5.960;2023-06-04T04:49:13;10.80;68.10
77613;DHT22;66777;52.282;5.960;2023-06-04T04:51:39;10.90;68.00
77613;DHT22;66777;52.282;5.960;2023-06-04T04:54:05;11.00;68.10
77613;DHT22;66777;52.282;5.960;2023-06-04T04:56:34;11.10;68.50
77613;DHT22;66777;52.282;5.960;2023-06-04T04:59:02;11.10;68.30
77613;DHT22;66777;52.282;5.960;2023-06-04T05:01:28;11.30;68.30
77613;DHT22;66777;52.282;5.960;2023-06-04T05:03:53;11.40;68.50
77613;DHT22;66777;52.282;5.960;2023-06-04T05:06:19;11.50;68.50
77613;DHT22;66777;52.282;5.960;2023-06-04T05:08:45;11.60;68.30
77613;DHT22;66777;52.282;5.960;2023-06-04T05:11:11;11.70;68.50
77613;DHT22;66777;52.282;5.960;2023-06-04T05:13:36;11.70;68.70
77613;DHT22;66777;52.282;5.960;2023-06-04T05:16:02;11.80;68.60
77613;DHT22;66777;52.282;5.960;2023-06-04T05:18:39;11.90;68.30
77613;DHT22;66777;52.282;5.960;2023-06-04T05:21:10;11.90;68.30
77613;DHT22;66777;52.282;5.960;2023-06-04T05:23:38;12.00;68.20
77613;DHT22;66777;52.282;5.960;2023-06-04T05:26:04;12.00;68.20
77613;DHT22;66777;52.282;5.960;2023-06-04T05:28:31;12.10;68.30
77613;DHT22;66777;52.282;5.960;2023-06-04T05:30:59;12.20;68.30
77613;DHT22;66777;52.282;5.960;2023-06-04T05:33:29;12.20;68.20
77613;DHT22;66777;52.282;5.960;2023-06-04T05:35:56;12.30;68.20
77613;DHT22;66777;52.282;5.960;2023-06-04T05:38:25;12.40;68.20
77613;DHT22;66777;52.282;5.960;2023-06-04T05:40:53;12.50;68.00
77613;DHT22;66777;52.282;5.960;2023-06-04T05:43:18;12.50;68.00
77613;DHT22;66777;52.282;5.960;2023-06-04T05:45:44;12.50;68.00
77613;DHT22;66777;52.282;5.960;2023-06-04T05:48:10;12.60;68.10
77613;DHT22;66777;52.282;5.960;2023-06-04T05:50:35;12.70;68.00
77613;DHT22;66777;52.282;5.960;2023-06-04T05:53:01;12.80;68.00
77613;DHT22;66777;52.282;5.960;2023-06-04T05:55:26;12.90;67.70
77613;DHT22;66777;52.282;5.960;2023-06-04T05:57:54;12.90;67.80
77613;DHT22;66777;52.282;5.960;2023-06-04T06:00:19;13.00;67.70
77613;DHT22;66777;52.282;5.960;2023-06-04T06:02:45;13.10;67.60
77613;DHT22;66777;52.282;5.960;2023-06-04T06:05:14;13.10;67.60
77613;DHT22;66777;52.282;5.960;2023-06-04T06:07:40;13.10;67.50
77613;DHT22;66777;52.282;5.960;2023-06-04T06:10:06;13.30;67.30
77613;DHT22;66777;52.282;5.960;2023-06-04T06:12:32;13.30;67.10
77613;DHT22;66777;52.282;5.960;2023-06-04T06:14:57;13.40;67.00
77613;DHT22;66777;52.282;5.960;2023-06-04T06:17:23;13.50;66.80
77613;DHT22;66777;52.282;5.960;2023-06-04T06:19:49;13.50;66.60
77613;DHT22;66777;52.282;5.960;2023-06-04T06:22:15;13.60;66.40
77613;DHT22;66777;52.282;5.960;2023-06-04T06:24:40;13.70;66.20
77613;DHT22;66777;52.282;5.960;2023-06-04T06:27:06;13.80;66.00
77613;DHT22;66777;52.282;5.960;2023-06-04T06:29:32;13.90;65.70
77613;DHT22;66777;52.282;5.960;2023-06-04T06:31:58;14.00;65.50
77613;DHT22;66777;52.282;5.960;2023-06-04T06:34:24;14.10;65.10
77613;DHT22;66777;52.282;5.960;2023-06-04T06:36:50;14.20;64.90
77613;DHT22;66777;52.282;5.960;2023-06-04T06:39:15;14.30;64.60
77613;DHT22;66777;52.282;5.960;2023-06-04T06:41:41;14.40;64.30
77613;DHT22;66777;52.282;5.960;2023-06-04T06:44:07;14.50;64.00
77613;DHT22;66777;52.282;5.960;2023-06-04T06:46:33;14.70;63.80
77613;DHT22;66777;52.282;5.960;2023-06-04T06:48:58;14.80;63.50
77613;DHT22;66777;52.282;5.960;2023-06-04T06:51:24;14.90;63.30
77613;DHT22;66777;52.282;5.960;2023-06-04T06:53:50;15.00;62.90
77613;DHT22;66777;52.282;5.960;2023-06-04T06:56:16;15.10;62.70
77613;DHT22;66777;52.282;5.960;2023-06-04T06:58:43;15.20;62.50
77613;DHT22;66777;52.282;5.960;2023-06-04T07:01:09;15.40;62.30
77613;DHT22;66777;52.282;5.960;2023-06-04T07:03:35;15.50;62.00
77613;DHT22;66777;52.282;5.960;2023-06-04T07:06:01;15.70;61.60
77613;DHT22;66777;52.282;5.960;2023-06-04T07:08:26;15.90;61.30
77613;DHT22;66777;52.282;5.960;2023-06-04T07:10:52;16.10;60.90
77613;DHT22;66777;52.282;5.960;2023-06-04T07:13:17;16.40;60.60
77613;DHT22;66777;52.282;5.960;2023-06-04T07:15:43;16.60;60.20
77613;DHT22;66777;52.282;5.960;2023-06-04T07:18:08;16.80;59.90
77613;DHT22;66777;52.282;5.960;2023-06-04T07:20:35;17.00;59.40
77613;DHT22;66777;52.282;5.960;2023-06-04T07:23:00;17.00;59.10
77613;DHT22;66777;52.282;5.960;2023-06-04T07:25:26;17.00;59.10
77613;DHT22;66777;52.282;5.960;2023-06-04T07:27:52;17.00;58.80
77613;DHT22;66777;52.282;5.960;2023-06-04T07:30:17;17.40;58.30
77613;DHT22;66777;52.282;5.960;2023-06-04T07:32:50;17.60;57.80
77613;DHT22;66777;52.282;5.960;2023-06-04T07:35:16;18.00;57.00
77613;DHT22;66777;52.282;5.960;2023-06-04T07:37:42;18.30;56.40
77613;DHT22;66777;52.282;5.960;2023-06-04T07:40:13;18.50;56.00
77613;DHT22;66777;52.282;5.960;2023-06-04T07:42:41;18.70;55.70
77613;DHT22;66777;52.282;5.960;2023-06-04T07:45:08;18.80;55.40
77613;DHT22;66777;52.282;5.960;2023-06-04T07:47:35;18.90;54.80
77613;DHT22;66777;52.282;5.960;2023-06-04T07:50:03;19.10;54.70
77613;DHT22;66777;52.282;5.960;2023-06-04T07:52:28;19.20;53.70
77613;DHT22;66777;52.282;5.960;2023-06-04T07:54:54;19.30;53.70
77613;DHT22;66777;52.282;5.960;2023-06-04T07:57:20;19.40;53.30
77613;DHT22;66777;52.282;5.960;2023-06-04T07:59:46;19.40;53.10
77613;DHT22;66777;52.282;5.960;2023-06-04T08:02:11;19.50;52.80
77613;DHT22;66777;52.282;5.960;2023-06-04T08:04:37;19.70;52.60
77613;DHT22;66777;52.282;5.960;2023-06-04T08:07:02;19.90;52.30
77613;DHT22;66777;52.282;5.960;2023-06-04T08:09:28;20.00;52.10
77613;DHT22;66777;52.282;5.960;2023-06-04T08:11:54;20.00;51.80
77613;DHT22;66777;52.282;5.960;2023-06-04T08:14:19;20.00;51.60
77613;DHT22;66777;52.282;5.960;2023-06-04T08:16:47;20.00;51.40
77613;DHT22;66777;52.282;5.960;2023-06-04T08:19:13;20.00;51.30
77613;DHT22;66777;52.282;5.960;2023-06-04T08:21:39;20.00;51.10
77613;DHT22;66777;52.282;5.960;2023-06-04T08:24:08;19.90;51.20
77613;DHT22;66777;52.282;5.960;2023-06-04T08:26:34;19.90;51.00
77613;DHT22;66777;52.282;5.960;2023-06-04T08:29:02;20.00;51.00
77613;DHT22;66777;52.282;5.960;2023-06-04T08:31:29;20.20;50.70
77613;DHT22;66777;52.282;5.960;2023-06-04T08:33:55;20.50;50.00
77613;DHT22;66777;52.282;5.960;2023-06-04T08:36:21;20.70;49.30
77613;DHT22;66777;52.282;5.960;2023-06-04T08:38:47;20.80;49.10
77613;DHT22;66777;52.282;5.960;2023-06-04T08:41:20;20.90;49.10
77613;DHT22;66777;52.282;5.960;2023-06-04T08:43:48;21.00;48.70
77613;DHT22;66777;52.282;5.960;2023-06-04T08:46:15;21.20;48.30
77613;DHT22;66777;52.282;5.960;2023-06-04T08:48:43;21.10;48.00
77613;DHT22;66777;52.282;5.960;2023-06-04T08:51:10;21.10;48.00
77613;DHT22;66777;52.282;5.960;2023-06-04T08:53:36;21.40;47.50
77613;DHT22;66777;52.282;5.960;2023-06-04T08:56:03;21.40;47.60
77613;DHT22;66777;52.282;5.960;2023-06-04T08:58:32;21.40;47.50
77613;DHT22;66777;52.282;5.960;2023-06-04T09:01:00;21.50;47.40
77613;DHT22;66777;52.282;5.960;2023-06-04T09:03:27;21.70;47.20
77613;DHT22;66777;52.282;5.960;2023-06-04T09:05:54;22.00;46.90
77613;DHT22;66777;52.282;5.960;2023-06-04T09:08:21;22.30;46.70
77613;DHT22;66777;52.282;5.960;2023-06-04T09:10:50;22.40;46.60
77613;DHT22;66777;52.282;5.960;2023-06-04T09:13:20;22.50;46.40
77613;DHT22;66777;52.282;5.960;2023-06-04T09:15:59;22.50;46.30
77613;DHT22;66777;52.282;5.960;2023-06-04T09:18:26;22.40;46.20
77613;DHT22;66777;52.282;5.960;2023-06-04T09:21:03;22.30;46.10
77613;DHT22;66777;52.282;5.960;2023-06-04T09:23:29;22.20;45.70
77613;DHT22;66777;52.282;5.960;2023-06-04T09:25:55;22.20;46.10
77613;DHT22;66777;52.282;5.960;2023-06-04T09:28:21;22.50;45.80
77613;DHT22;66777;52.282;5.960;2023-06-04T09:30:53;22.60;45.40
77613;DHT22;66777;52.282;5.960;2023-06-04T09:33:19;22.60;44.80
77613;DHT22;66777;52.282;5.960;2023-06-04T09:35:58;22.90;44.80
77613;DHT22;66777;52.282;5.960;2023-06-04T09:38:34;23.10;44.10
77613;DHT22;66777;52.282;5.960;2023-06-04T09:41:00;23.30;44.10
77613;DHT22;66777;52.282;5.960;2023-06-04T09:43:26;23.50;44.00
77613;DHT22;66777;52.282;5.960;2023-06-04T09:45:52;23.50;43.90
77613;DHT22;66777;52.282;5.960;2023-06-04T09:48:21;23.60;43.70
77613;DHT22;66777;52.282;5.960;2023-06-04T09:50:47;23.80;43.60
77613;DHT22;66777;52.282;5.960;2023-06-04T09:53:20;23.90;43.50
77613;DHT22;66777;52.282;5.960;2023-06-04T09:55:58;23.90;42.80
77613;DHT22;66777;52.282;5.960;2023-06-04T09:58:25;23.70;42.80
77613;DHT22;66777;52.282;5.960;2023-06-04T10:00:53;23.70;43.00
77613;DHT22;66777;52.282;5.960;2023-06-04T10:03:21;23.90;42.80
77613;DHT22;66777;52.282;5.960;2023-06-04T10:05:52;24.20;42.60
77613;DHT22;66777;52.282;5.960;2023-06-04T10:08:18;24.00;42.50
77613;DHT22;66777;52.282;5.960;2023-06-04T10:10:45;24.00;42.70
77613;DHT22;66777;52.282;5.960;2023-06-04T10:13:18;24.30;42.30
77613;DHT22;66777;52.282;5.960;2023-06-04T10:15:47;24.40;41.30
77613;DHT22;66777;52.282;5.960;2023-06-04T10:18:14;24.50;41.20
77613;DHT22;66777;52.282;5.960;2023-06-04T10:20:41;24.80;40.90
77613;DHT22;66777;52.282;5.960;2023-06-04T10:23:07;24.90;40.60
77613;DHT22;66777;52.282;5.960;2023-06-04T10:25:34;24.80;40.40
77613;DHT22;66777;52.282;5.960;2023-06-04T10:28:01;25.00;40.00
77613;DHT22;66777;52.282;5.960;2023-06-04T10:30:27;25.30;39.20
77613;DHT22;66777;52.282;5.960;2023-06-04T10:32:53;25.40;39.00
77613;DHT22;66777;52.282;5.960;2023-06-04T10:35:29;25.60;38.80
77613;DHT22;66777;52.282;5.960;2023-06-04T10:40:33;26.00;38.10
77613;DHT22;66777;52.282;5.960;2023-06-04T10:43:05;26.20;38.20
77613;DHT22;66777;52.282;5.960;2023-06-04T10:45:31;26.30;37.70
77613;DHT22;66777;52.282;5.960;2023-06-04T10:48:00;26.30;37.80
77613;DHT22;66777;52.282;5.960;2023-06-04T10:50:26;26.10;37.30
77613;DHT22;66777;52.282;5.960;2023-06-04T10:52:53;26.00;37.60
77613;DHT22;66777;52.282;5.960;2023-06-04T10:55:19;26.00;37.80
77613;DHT22;66777;52.282;5.960;2023-06-04T10:57:55;26.10;37.20
77613;DHT22;66777;52.282;5.960;2023-06-04T11:00:21;26.10;36.80
77613;DHT22;66777;52.282;5.960;2023-06-04T11:02:54;26.10;37.20
77613;DHT22;66777;52.282;5.960;2023-06-04T11:05:43;26.30;37.20
77613;DHT22;66777;52.282;5.960;2023-06-04T11:08:09;26.40;37.30
77613;DHT22;66777;52.282;5.960;2023-06-04T11:10:40;26.40;36.30
77613;DHT22;66777;52.282;5.960;2023-06-04T11:13:06;26.10;37.00
77613;DHT22;66777;52.282;5.960;2023-06-04T11:15:40;26.10;37.20
77613;DHT22;66777;52.282;5.960;2023-06-04T11:18:05;26.10;36.90
77613;DHT22;66777;52.282;5.960;2023-06-04T11:20:31;26.20;37.10
77613;DHT22;66777;52.282;5.960;2023-06-04T11:22:58;26.40;37.00
77613;DHT22;66777;52.282;5.960;2023-06-04T11:25:29;26.40;37.10
77613;DHT22;66777;52.282;5.960;2023-06-04T11:27:56;26.50;36.90
77613;DHT22;66777;52.282;5.960;2023-06-04T11:30:23;26.40;36.90
77613;DHT22;66777;52.282;5.960;2023-06-04T11:32:50;26.40;36.90
77613;DHT22;66777;52.282;5.960;2023-06-04T11:35:16;26.50;37.00
77613;DHT22;66777;52.282;5.960;2023-06-04T11:37:41;26.50;36.80
77613;DHT22;66777;52.282;5.960;2023-06-04T11:40:19;26.50;36.90
77613;DHT22;66777;52.282;5.960;2023-06-04T11:42:46;26.60;36.90
77613;DHT22;66777;52.282;5.960;2023-06-04T11:45:16;26.60;36.80
77613;DHT22;66777;52.282;5.960;2023-06-04T11:47:51;26.50;36.60
77613;DHT22;66777;52.282;5.960;2023-06-04T11:50:17;26.40;36.40
77613;DHT22;66777;52.282;5.960;2023-06-04T11:52:43;26.10;36.80
77613;DHT22;66777;52.282;5.960;2023-06-04T11:55:10;26.10;37.00
77613;DHT22;66777;52.282;5.960;2023-06-04T11:57:39;26.20;36.90
77613;DHT22;66777;52.282;5.960;2023-06-04T12:00:06;26.00;36.90
77613;DHT22;66777;52.282;5.960;2023-06-04T12:02:48;26.10;37.10
77613;DHT22;66777;52.282;5.960;2023-06-04T12:05:14;26.40;37.00
77613;DHT22;66777;52.282;5.960;2023-06-04T12:07:40;26.40;36.90
77613;DHT22;66777;52.282;5.960;2023-06-04T12:10:07;26.40;36.90
77613;DHT22;66777;52.282;5.960;2023-06-04T12:12:34;26.50;36.70
77613;DHT22;66777;52.282;5.960;2023-06-04T12:15:00;26.60;36.70
77613;DHT22;66777;52.282;5.960;2023-06-04T12:17:26;26.70;36.50
77613;DHT22;66777;52.282;5.960;2023-06-04T12:19:52;26.80;36.60
77613;DHT22;66777;52.282;5.960;2023-06-04T12:22:18;26.90;36.60
77613;DHT22;66777;52.282;5.960;2023-06-04T12:24:52;26.80;36.40
77613;DHT22;66777;52.282;5.960;2023-06-04T12:27:19;26.70;36.50
77613;DHT22;66777;52.282;5.960;2023-06-04T12:30:00;26.70;36.50
77613;DHT22;66777;52.282;5.960;2023-06-04T12:32:26;26.70;36.10
77613;DHT22;66777;52.282;5.960;2023-06-04T12:34:52;26.60;36.40
77613;DHT22;66777;52.282;5.960;2023-06-04T12:37:18;26.40;36.50
77613;DHT22;66777;52.282;5.960;2023-06-04T12:39:44;26.40;36.60
77613;DHT22;66777;52.282;5.960;2023-06-04T12:42:09;26.40;36.60
77613;DHT22;66777;52.282;5.960;2023-06-04T12:44:37;26.50;36.40
77613;DHT22;66777;52.282;5.960;2023-06-04T12:47:03;26.40;36.70
77613;DHT22;66777;52.282;5.960;2023-06-04T12:49:29;26.40;36.80
77613;DHT22;66777;52.282;5.960;2023-06-04T12:51:55;26.40;36.80
77613;DHT22;66777;52.282;5.960;2023-06-04T12:54:21;26.20;37.00
77613;DHT22;66777;52.282;5.960;2023-06-04T12:56:46;26.40;37.00
77613;DHT22;66777;52.282;5.960;2023-06-04T12:59:12;26.60;36.80
77613;DHT22;66777;52.282;5.960;2023-06-04T13:01:38;26.60;37.10
77613;DHT22;66777;52.282;5.960;2023-06-04T13:04:04;26.60;37.20
77613;DHT22;66777;52.282;5.960;2023-06-04T13:06:31;26.70;37.20
77613;DHT22;66777;52.282;5.960;2023-06-04T13:08:57;26.80;37.20
77613;DHT22;66777;52.282;5.960;2023-06-04T13:11:22;26.90;37.20
77613;DHT22;66777;52.282;5.960;2023-06-04T13:13:48;26.90;37.20
77613;DHT22;66777;52.282;5.960;2023-06-04T13:16:14;27.00;37.20
77613;DHT22;66777;52.282;5.960;2023-06-04T13:18:40;27.00;37.00
77613;DHT22;66777;52.282;5.960;2023-06-04T13:21:05;27.00;37.00
77613;DHT22;66777;52.282;5.960;2023-06-04T13:23:31;27.00;37.20
77613;DHT22;66777;52.282;5.960;2023-06-04T13:25:57;26.90;37.30
77613;DHT22;66777;52.282;5.960;2023-06-04T13:28:22;27.00;37.20
77613;DHT22;66777;52.282;5.960;2023-06-04T13:30:48;26.90;37.20
77613;DHT22;66777;52.282;5.960;2023-06-04T13:33:14;26.70;37.50
77613;DHT22;66777;52.282;5.960;2023-06-04T13:35:40;26.60;37.70
77613;DHT22;66777;52.282;5.960;2023-06-04T13:38:07;26.80;37.80
77613;DHT22;66777;52.282;5.960;2023-06-04T13:40:36;26.90;37.60
77613;DHT22;66777;52.282;5.960;2023-06-04T13:43:02;26.90;37.70
77613;DHT22;66777;52.282;5.960;2023-06-04T13:45:28;26.90;37.70
77613;DHT22;66777;52.282;5.960;2023-06-04T13:47:54;26.80;38.10
77613;DHT22;66777;52.282;5.960;2023-06-04T13:50:19;26.70;37.90
77613;DHT22;66777;52.282;5.960;2023-06-04T13:52:45;26.90;37.70
77613;DHT22;66777;52.282;5.960;2023-06-04T13:55:12;27.00;37.60
77613;DHT22;66777;52.282;5.960;2023-06-04T13:57:39;27.00;37.50
77613;DHT22;66777;52.282;5.960;2023-06-04T14:00:05;27.10;37.50
77613;DHT22;66777;52.282;5.960;2023-06-04T14:02:32;27.00;37.50
77613;DHT22;66777;52.282;5.960;2023-06-04T14:04:58;26.90;37.70
77613;DHT22;66777;52.282;5.960;2023-06-04T14:07:24;26.70;37.60
77613;DHT22;66777;52.282;5.960;2023-06-04T14:09:50;26.70;37.60
77613;DHT22;66777;52.282;5.960;2023-06-04T14:12:23;26.80;37.70
77613;DHT22;66777;52.282;5.960;2023-06-04T14:14:48;26.80;37.70
77613;DHT22;66777;52.282;5.960;2023-06-04T14:17:14;26.70;37.70
77613;DHT22;66777;52.282;5.960;2023-06-04T14:19:40;26.70;37.80
77613;DHT22;66777;52.282;5.960;2023-06-04T14:22:06;26.50;37.90
77613;DHT22;66777;52.282;5.960;2023-06-04T14:24:33;26.50;38.00
77613;DHT22;66777;52.282;5.960;2023-06-04T14:26:58;26.60;38.00
77613;DHT22;66777;52.282;5.960;2023-06-04T14:29:24;26.50;37.90
77613;DHT22;66777;52.282;5.960;2023-06-04T14:31:50;26.40;38.10
77613;DHT22;66777;52.282;5.960;2023-06-04T14:34:15;26.40;38.20
77613;DHT22;66777;52.282;5.960;2023-06-04T14:36:41;26.60;38.10
77613;DHT22;66777;52.282;5.960;2023-06-04T14:39:07;26.60;38.00
77613;DHT22;66777;52.282;5.960;2023-06-04T14:41:33;26.60;37.90
77613;DHT22;66777;52.282;5.960;2023-06-04T14:43:59;26.40;37.90
77613;DHT22;66777;52.282;5.960;2023-06-04T14:46:25;26.30;38.00
77613;DHT22;66777;52.282;5.960;2023-06-04T14:48:51;26.20;38.10
77613;DHT22;66777;52.282;5.960;2023-06-04T14:51:17;26.20;38.30
77613;DHT22;66777;52.282;5.960;2023-06-04T14:53:42;26.20;38.40
77613;DHT22;66777;52.282;5.960;2023-06-04T14:56:08;26.30;38.30
77613;DHT22;66777;52.282;5.960;2023-06-04T14:58:34;26.20;38.30
77613;DHT22;66777;52.282;5.960;2023-06-04T15:01:00;26.30;38.50
77613;DHT22;66777;52.282;5.960;2023-06-04T15:03:29;26.40;38.30
77613;DHT22;66777;52.282;5.960;2023-06-04T15:05:54;26.20;38.30
77613;DHT22;66777;52.282;5.960;2023-06-04T15:08:20;26.20;38.20
77613;DHT22;66777;52.282;5.960;2023-06-04T15:10:46;26.10;38.40
77613;DHT22;66777;52.282;5.960;2023-06-04T15:13:11;26.10;38.30
77613;DHT22;66777;52.282;5.960;2023-06-04T15:15:37;26.00;38.30
77613;DHT22;66777;52.282;5.960;2023-06-04T15:18:03;26.10;38.30
77613;DHT22;66777;52.282;5.960;2023-06-04T15:20:28;26.10;38.30
77613;DHT22;66777;52.282;5.960;2023-06-04T15:22:54;26.00;38.30
77613;DHT22;66777;52.282;5.960;2023-06-04T15:25:20;26.10;38.40
77613;DHT22;66777;52.282;5.960;2023-06-04T15:27:46;26.10;38.40
77613;DHT22;66777;52.282;5.960;2023-06-04T15:30:12;26.10;38.30
77613;DHT22;66777;52.282;5.960;2023-06-04T15:32:37;26.00;38.20
77613;DHT22;66777;52.282;5.960;2023-06-04T15:35:04;25.90;38.40